sensor_id;sensor_type;location;lat;lon;timestamp;P1;durP1;ratioP1;P2;durP2;ratioP2
27802;SDS011;15182;48.174;11.562;2022-09-09T00:00:44;1.50;;;1.50;;
27802;SDS011;15182;48.174;11.562;2022-09-09T00:03:24;1.60;;;1.60;;
27802;SDS011;15182;48.174;11.562;2022-09-09T00:06:03;1.60;;;1.60;;
27802;SDS011;15182;48.174;11.562;2022-09-09T00:08:50;1.33;;;1.33;;
27802;SDS011;15182;48.174;11.562;2022-09-09T00:11:28;1.70;;;1.60;;
27802;SDS011;15182;48.174;11.562;2022-09-09T00:14:17;1.25;;;1.25;;
27802;SDS011;15182;48.174;11.562;2022-09-09T00:16:55;1.40;;;1.40;;
27802;SDS011;15182;48.174;11.562;2022-09-09T00:19:32;3.92;;;1.40;;
27802;SDS011;15182;48.174;11.562;2022-09-09T00:22:13;1.50;;;1.50;;
27802;SDS011;15182;48.174;11.562;2022-09-09T00:24:51;1.30;;;1.30;;
27802;SDS011;15182;48.174;11.562;2022-09-09T00:27:25;1.45;;;1.45;;
27802;SDS011;15182;48.174;11.562;2022-09-09T00:30:13;1.50;;;1.50;;
27802;SDS011;15182;48.174;11.562;2022-09-09T00:32:46;1.42;;;1.42;;
27802;SDS011;15182;48.174;11.562;2022-09-09T00:35:24;1.60;;;1.33;;
27802;SDS011;15182;48.174;11.562;2022-09-09T00:38:00;3.40;;;1.50;;
27802;SDS011;15182;48.174;11.562;2022-09-09T00:40:44;1.73;;;1.63;;
27802;SDS011;15182;48.174;11.562;2022-09-09T00:43:26;1.35;;;1.33;;
27802;SDS011;15182;48.174;11.562;2022-09-09T00:46:17;1.85;;;1.40;;
27802;SDS011;15182;48.174;11.562;2022-09-09T00:49:14;1.42;;;1.42;;
27802;SDS011;15182;48.174;11.562;2022-09-09T00:51:55;1.45;;;1.45;;
27802;SDS011;15182;48.174;11.562;2022-09-09T00:54:37;1.70;;;1.70;;
27802;SDS011;15182;48.174;11.562;2022-09-09T00:57:25;1.65;;;1.65;;
27802;SDS011;15182;48.174;11.562;2022-09-09T01:00:15;1.70;;;1.70;;
27802;SDS011;15182;48.174;11.562;2022-09-09T01:02:57;1.50;;;1.50;;
27802;SDS011;15182;48.174;11.562;2022-09-09T01:05:39;1.70;;;1.70;;
27802;SDS011;15182;48.174;11.562;2022-09-09T01:08:20;2.00;;;1.90;;
27802;SDS011;15182;48.174;11.562;2022-09-09T01:11:10;1.50;;;1.50;;
27802;SDS011;15182;48.174;11.562;2022-09-09T01:13:55;2.10;;;1.77;;
27802;SDS011;15182;48.174;11.562;2022-09-09T01:16:34;1.40;;;1.40;;
27802;SDS011;15182;48.174;11.562;2022-09-09T01:19:07;1.55;;;1.45;;
27802;SDS011;15182;48.174;11.562;2022-09-09T01:21:55;1.67;;;1.67;;
27802;SDS011;15182;48.174;11.562;2022-09-09T01:24:35;1.42;;;1.42;;
27802;SDS011;15182;48.174;11.562;2022-09-09T01:27:24;1.58;;;1.58;;
27802;SDS011;15182;48.174;11.562;2022-09-09T01:29:56;1.80;;;1.80;;
27802;SDS011;15182;48.174;11.562;2022-09-09T01:32:39;1.52;;;1.52;;
27802;SDS011;15182;48.174;11.562;2022-09-09T01:35:15;2.70;;;1.52;;
27802;SDS011;15182;48.174;11.562;2022-09-09T01:37:58;2.75;;;1.60;;
27802;SDS011;15182;48.174;11.562;2022-09-09T01:40:30;1.70;;;1.60;;
27802;SDS011;15182;48.174;11.562;2022-09-09T01:43:02;2.00;;;1.90;;
27802;SDS011;15182;48.174;11.562;2022-09-09T01:45:35;1.63;;;1.63;;
27802;SDS011;15182;48.174;11.562;2022-09-09T01:48:08;1.77;;;1.70;;
27802;SDS011;15182;48.174;11.562;2022-09-09T01:50:45;1.98;;;1.70;;
27802;SDS011;15182;48.174;11.562;2022-09-09T01:53:17;2.03;;;1.98;;
27802;SDS011;15182;48.174;11.562;2022-09-09T01:55:53;1.60;;;1.60;;
27802;SDS011;15182;48.174;11.562;2022-09-09T01:58:40;1.80;;;1.70;;
27802;SDS011;15182;48.174;11.562;2022-09-09T02:01:23;2.00;;;1.77;;
27802;SDS011;15182;48.174;11.562;2022-09-09T02:04:02;1.60;;;1.60;;
27802;SDS011;15182;48.174;11.562;2022-09-09T02:06:42;1.90;;;1.80;;
27802;SDS011;15182;48.174;11.562;2022-09-09T02:09:24;2.13;;;2.03;;
27802;SDS011;15182;48.174;11.562;2022-09-09T02:12:01;1.73;;;1.73;;
27802;SDS011;15182;48.174;11.562;2022-09-09T02:14:48;1.65;;;1.60;;
27802;SDS011;15182;48.174;11.562;2022-09-09T02:17:33;1.90;;;1.83;;
27802;SDS011;15182;48.174;11.562;2022-09-09T02:20:13;2.00;;;1.98;;
27802;SDS011;15182;48.174;11.562;2022-09-09T02:22:58;1.90;;;1.90;;
27802;SDS011;15182;48.174;11.562;2022-09-09T02:25:30;1.48;;;1.48;;
27802;SDS011;15182;48.174;11.562;2022-09-09T02:28:13;1.75;;;1.65;;
27802;SDS011;15182;48.174;11.562;2022-09-09T02:30:48;2.03;;;1.75;;
27802;SDS011;15182;48.174;11.562;2022-09-09T02:33:26;1.60;;;1.60;;
27802;SDS011;15182;48.174;11.562;2022-09-09T02:36:04;1.77;;;1.67;;
27802;SDS011;15182;48.174;11.562;2022-09-09T02:38:40;1.75;;;1.48;;
27802;SDS011;15182;48.174;11.562;2022-09-09T02:41:22;1.55;;;1.45;;
27802;SDS011;15182;48.174;11.562;2022-09-09T02:44:04;1.70;;;1.70;;
27802;SDS011;15182;48.174;11.562;2022-09-09T02:46:45;1.38;;;1.38;;
27802;SDS011;15182;48.174;11.562;2022-09-09T02:49:35;1.48;;;1.35;;
27802;SDS011;15182;48.174;11.562;2022-09-09T02:52:13;1.30;;;1.30;;
27802;SDS011;15182;48.174;11.562;2022-09-09T02:54:48;1.30;;;1.30;;
27802;SDS011;15182;48.174;11.562;2022-09-09T02:57:27;1.63;;;1.48;;
27802;SDS011;15182;48.174;11.562;2022-09-09T03:00:04;1.55;;;1.55;;
27802;SDS011;15182;48.174;11.562;2022-09-09T03:02:40;2.05;;;1.95;;
27802;SDS011;15182;48.174;11.562;2022-09-09T03:05:14;1.30;;;1.30;;
27802;SDS011;15182;48.174;11.562;2022-09-09T03:07:56;1.40;;;1.33;;
27802;SDS011;15182;48.174;11.562;2022-09-09T03:10:28;2.20;;;1.20;;
27802;SDS011;15182;48.174;11.562;2022-09-09T03:12:59;1.58;;;1.45;;
27802;SDS011;15182;48.174;11.562;2022-09-09T03:15:34;1.42;;;1.42;;
27802;SDS011;15182;48.174;11.562;2022-09-09T03:18:10;2.53;;;1.50;;
27802;SDS011;15182;48.174;11.562;2022-09-09T03:20:41;1.40;;;1.40;;
27802;SDS011;15182;48.174;11.562;2022-09-09T03:23:17;1.60;;;1.50;;
27802;SDS011;15182;48.174;11.562;2022-09-09T03:25:50;1.30;;;1.30;;
27802;SDS011;15182;48.174;11.562;2022-09-09T03:28:29;1.50;;;1.50;;
27802;SDS011;15182;48.174;11.562;2022-09-09T03:31:02;2.60;;;1.30;;
27802;SDS011;15182;48.174;11.562;2022-09-09T03:33:40;2.17;;;1.23;;
27802;SDS011;15182;48.174;11.562;2022-09-09T03:36:16;1.25;;;1.25;;
27802;SDS011;15182;48.174;11.562;2022-09-09T03:38:47;1.50;;;1.25;;
27802;SDS011;15182;48.174;11.562;2022-09-09T03:41:20;1.20;;;1.20;;
27802;SDS011;15182;48.174;11.562;2022-09-09T03:43:53;1.23;;;1.23;;
27802;SDS011;15182;48.174;11.562;2022-09-09T03:46:26;1.20;;;1.20;;
27802;SDS011;15182;48.174;11.562;2022-09-09T03:49:00;1.38;;;1.38;;
27802;SDS011;15182;48.174;11.562;2022-09-09T03:51:32;3.20;;;1.42;;
27802;SDS011;15182;48.174;11.562;2022-09-09T03:54:05;1.30;;;1.30;;
27802;SDS011;15182;48.174;11.562;2022-09-09T03:56:37;1.38;;;1.38;;
27802;SDS011;15182;48.174;11.562;2022-09-09T03:59:11;1.30;;;1.30;;
27802;SDS011;15182;48.174;11.562;2022-09-09T04:01:42;1.38;;;1.38;;
27802;SDS011;15182;48.174;11.562;2022-09-09T04:04:15;1.40;;;1.40;;
27802;SDS011;15182;48.174;11.562;2022-09-09T04:06:46;1.50;;;1.40;;
27802;SDS011;15182;48.174;11.562;2022-09-09T04:09:19;1.33;;;1.30;;
27802;SDS011;15182;48.174;11.562;2022-09-09T04:11:52;2.55;;;1.60;;
27802;SDS011;15182;48.174;11.562;2022-09-09T04:14:25;1.40;;;1.40;;
27802;SDS011;15182;48.174;11.562;2022-09-09T04:16:57;1.27;;;1.27;;
27802;SDS011;15182;48.174;11.562;2022-09-09T04:19:33;1.30;;;1.30;;
27802;SDS011;15182;48.174;11.562;2022-09-09T04:22:04;1.40;;;1.30;;
27802;SDS011;15182;48.174;11.562;2022-09-09T04:24:35;1.40;;;1.40;;
27802;SDS011;15182;48.174;11.562;2022-09-09T04:27:07;1.30;;;1.30;;
27802;SDS011;15182;48.174;11.562;2022-09-09T04:29:38;2.25;;;1.35;;
27802;SDS011;15182;48.174;11.562;2022-09-09T04:32:09;1.33;;;1.33;;
27802;SDS011;15182;48.174;11.562;2022-09-09T04:34:42;1.70;;;1.60;;
27802;SDS011;15182;48.174;11.562;2022-09-09T04:37:14;1.60;;;1.40;;
27802;SDS011;15182;48.174;11.562;2022-09-09T04:39:45;2.80;;;1.50;;
27802;SDS011;15182;48.174;11.562;2022-09-09T04:42:18;1.20;;;1.20;;
27802;SDS011;15182;48.174;11.562;2022-09-09T04:44:50;1.40;;;1.40;;
27802;SDS011;15182;48.174;11.562;2022-09-09T04:47:22;1.13;;;1.13;;
27802;SDS011;15182;48.174;11.562;2022-09-09T04:49:55;1.50;;;1.40;;
27802;SDS011;15182;48.174;11.562;2022-09-09T04:52:26;1.75;;;1.40;;
27802;SDS011;15182;48.174;11.562;2022-09-09T04:54:58;1.40;;;1.40;;
27802;SDS011;15182;48.174;11.562;2022-09-09T04:57:29;1.60;;;1.60;;
27802;SDS011;15182;48.174;11.562;2022-09-09T05:00:01;1.75;;;1.75;;
27802;SDS011;15182;48.174;11.562;2022-09-09T05:02:37;1.60;;;1.60;;
27802;SDS011;15182;48.174;11.562;2022-09-09T05:05:10;1.42;;;1.42;;
27802;SDS011;15182;48.174;11.562;2022-09-09T05:07:41;1.50;;;1.50;;
27802;SDS011;15182;48.174;11.562;2022-09-09T05:10:14;1.63;;;1.63;;
27802;SDS011;15182;48.174;11.562;2022-09-09T05:12:51;4.15;;;1.60;;
27802;SDS011;15182;48.174;11.562;2022-09-09T05:15:25;2.05;;;1.30;;
27802;SDS011;15182;48.174;11.562;2022-09-09T05:17:57;1.50;;;1.50;;
27802;SDS011;15182;48.174;11.562;2022-09-09T05:20:32;1.70;;;1.58;;
27802;SDS011;15182;48.174;11.562;2022-09-09T05:23:03;1.67;;;1.63;;
27802;SDS011;15182;48.174;11.562;2022-09-09T05:25:35;1.80;;;1.70;;
27802;SDS011;15182;48.174;11.562;2022-09-09T05:28:08;1.63;;;1.52;;
27802;SDS011;15182;48.174;11.562;2022-09-09T05:30:40;1.75;;;1.30;;
27802;SDS011;15182;48.174;11.562;2022-09-09T05:33:11;1.40;;;1.40;;
27802;SDS011;15182;48.174;11.562;2022-09-09T05:35:44;1.40;;;1.40;;
27802;SDS011;15182;48.174;11.562;2022-09-09T05:38:17;1.48;;;1.48;;
27802;SDS011;15182;48.174;11.562;2022-09-09T05:40:50;1.50;;;1.40;;
27802;SDS011;15182;48.174;11.562;2022-09-09T05:43:23;1.52;;;1.50;;
27802;SDS011;15182;48.174;11.562;2022-09-09T05:45:59;1.40;;;1.40;;
27802;SDS011;15182;48.174;11.562;2022-09-09T05:48:34;1.40;;;1.40;;
27802;SDS011;15182;48.174;11.562;2022-09-09T05:51:10;1.73;;;1.58;;
27802;SDS011;15182;48.174;11.562;2022-09-09T05:53:43;1.42;;;1.42;;
27802;SDS011;15182;48.174;11.562;2022-09-09T05:56:15;1.30;;;1.30;;
27802;SDS011;15182;48.174;11.562;2022-09-09T05:58:49;1.30;;;1.30;;
27802;SDS011;15182;48.174;11.562;2022-09-09T06:01:23;1.27;;;1.27;;
27802;SDS011;15182;48.174;11.562;2022-09-09T06:03:57;1.25;;;1.25;;
27802;SDS011;15182;48.174;11.562;2022-09-09T06:06:31;6.28;;;1.60;;
27802;SDS011;15182;48.174;11.562;2022-09-09T06:09:10;1.30;;;1.30;;
27802;SDS011;15182;48.174;11.562;2022-09-09T06:11:43;1.23;;;1.23;;
27802;SDS011;15182;48.174;11.562;2022-09-09T06:14:14;1.40;;;1.40;;
27802;SDS011;15182;48.174;11.562;2022-09-09T06:16:48;1.98;;;1.50;;
27802;SDS011;15182;48.174;11.562;2022-09-09T06:19:25;1.45;;;1.38;;
27802;SDS011;15182;48.174;11.562;2022-09-09T06:21:59;1.73;;;1.65;;
27802;SDS011;15182;48.174;11.562;2022-09-09T06:24:33;1.55;;;1.52;;
27802;SDS011;15182;48.174;11.562;2022-09-09T06:27:06;1.95;;;1.25;;
27802;SDS011;15182;48.174;11.562;2022-09-09T06:29:39;1.20;;;1.20;;
27802;SDS011;15182;48.174;11.562;2022-09-09T06:32:10;2.03;;;1.70;;
27802;SDS011;15182;48.174;11.562;2022-09-09T06:34:43;1.67;;;1.58;;
27802;SDS011;15182;48.174;11.562;2022-09-09T06:37:16;1.35;;;1.20;;
27802;SDS011;15182;48.174;11.562;2022-09-09T06:39:50;1.27;;;1.27;;
27802;SDS011;15182;48.174;11.562;2022-09-09T06:42:21;1.85;;;1.30;;
27802;SDS011;15182;48.174;11.562;2022-09-09T06:45:05;1.30;;;1.30;;
27802;SDS011;15182;48.174;11.562;2022-09-09T06:47:47;2.78;;;1.58;;
27802;SDS011;15182;48.174;11.562;2022-09-09T06:50:18;1.70;;;1.60;;
27802;SDS011;15182;48.174;11.562;2022-09-09T06:52:51;2.17;;;1.42;;
27802;SDS011;15182;48.174;11.562;2022-09-09T06:55:23;1.40;;;1.40;;
27802;SDS011;15182;48.174;11.562;2022-09-09T06:57:54;1.30;;;1.30;;
27802;SDS011;15182;48.174;11.562;2022-09-09T07:00:26;1.42;;;1.33;;
27802;SDS011;15182;48.174;11.562;2022-09-09T07:03:04;1.48;;;1.35;;
27802;SDS011;15182;48.174;11.562;2022-09-09T07:05:36;1.40;;;1.40;;
27802;SDS011;15182;48.174;11.562;2022-09-09T07:08:09;1.30;;;1.30;;
27802;SDS011;15182;48.174;11.562;2022-09-09T07:10:43;1.58;;;1.20;;
27802;SDS011;15182;48.174;11.562;2022-09-09T07:13:15;1.42;;;1.33;;
27802;SDS011;15182;48.174;11.562;2022-09-09T07:15:46;1.38;;;1.30;;
27802;SDS011;15182;48.174;11.562;2022-09-09T07:18:18;1.90;;;1.42;;
27802;SDS011;15182;48.174;11.562;2022-09-09T07:20:53;1.30;;;1.30;;
27802;SDS011;15182;48.174;11.562;2022-09-09T07:23:27;1.85;;;1.40;;
27802;SDS011;15182;48.174;11.562;2022-09-09T07:25:59;1.40;;;1.10;;
27802;SDS011;15182;48.174;11.562;2022-09-09T07:28:33;1.45;;;1.38;;
27802;SDS011;15182;48.174;11.562;2022-09-09T07:31:05;1.40;;;1.40;;
27802;SDS011;15182;48.174;11.562;2022-09-09T07:33:49;2.22;;;1.35;;
27802;SDS011;15182;48.174;11.562;2022-09-09T07:36:22;1.98;;;1.40;;
27802;SDS011;15182;48.174;11.562;2022-09-09T07:38:58;1.00;;;1.00;;
27802;SDS011;15182;48.174;11.562;2022-09-09T07:41:33;1.10;;;1.10;;
27802;SDS011;15182;48.174;11.562;2022-09-09T07:44:08;1.40;;;1.40;;
27802;SDS011;15182;48.174;11.562;2022-09-09T07:46:43;1.40;;;1.40;;
27802;SDS011;15182;48.174;11.562;2022-09-09T07:49:19;1.40;;;1.40;;
27802;SDS011;15182;48.174;11.562;2022-09-09T07:51:50;1.23;;;1.23;;
27802;SDS011;15182;48.174;11.562;2022-09-09T07:54:23;2.55;;;1.55;;
27802;SDS011;15182;48.174;11.562;2022-09-09T07:56:55;1.95;;;1.30;;
27802;SDS011;15182;48.174;11.562;2022-09-09T07:59:28;1.35;;;1.30;;
27802;SDS011;15182;48.174;11.562;2022-09-09T08:02:01;1.40;;;1.30;;
27802;SDS011;15182;48.174;11.562;2022-09-09T08:04:34;1.48;;;1.38;;
27802;SDS011;15182;48.174;11.562;2022-09-09T08:07:05;1.60;;;1.45;;
27802;SDS011;15182;48.174;11.562;2022-09-09T08:09:45;2.15;;;1.30;;
27802;SDS011;15182;48.174;11.562;2022-09-09T08:12:21;1.30;;;1.25;;
27802;SDS011;15182;48.174;11.562;2022-09-09T08:14:53;1.63;;;1.50;;
27802;SDS011;15182;48.174;11.562;2022-09-09T08:17:28;1.42;;;1.33;;
27802;SDS011;15182;48.174;11.562;2022-09-09T08:20:04;1.48;;;1.48;;
27802;SDS011;15182;48.174;11.562;2022-09-09T08:22:35;1.20;;;1.20;;
27802;SDS011;15182;48.174;11.562;2022-09-09T08:25:08;1.73;;;1.63;;
27802;SDS011;15182;48.174;11.562;2022-09-09T08:27:40;1.42;;;1.42;;
27802;SDS011;15182;48.174;11.562;2022-09-09T08:30:12;2.97;;;1.50;;
27802;SDS011;15182;48.174;11.562;2022-09-09T08:32:43;1.52;;;1.42;;
27802;SDS011;15182;48.174;11.562;2022-09-09T08:35:17;1.85;;;1.85;;
27802;SDS011;15182;48.174;11.562;2022-09-09T08:37:53;1.33;;;1.33;;
27802;SDS011;15182;48.174;11.562;2022-09-09T08:40:28;2.30;;;1.58;;
27802;SDS011;15182;48.174;11.562;2022-09-09T08:43:04;1.65;;;1.48;;
27802;SDS011;15182;48.174;11.562;2022-09-09T08:45:37;1.50;;;1.40;;
27802;SDS011;15182;48.174;11.562;2022-09-09T08:48:25;1.70;;;1.60;;
27802;SDS011;15182;48.174;11.562;2022-09-09T08:51:11;3.67;;;1.70;;
27802;SDS011;15182;48.174;11.562;2022-09-09T08:53:46;1.83;;;1.73;;
27802;SDS011;15182;48.174;11.562;2022-09-09T08:56:24;1.92;;;1.75;;
27802;SDS011;15182;48.174;11.562;2022-09-09T08:59:03;1.60;;;1.55;;
27802;SDS011;15182;48.174;11.562;2022-09-09T09:01:42;1.80;;;1.70;;
27802;SDS011;15182;48.174;11.562;2022-09-09T09:04:44;1.88;;;1.77;;
27802;SDS011;15182;48.174;11.562;2022-09-09T09:07:23;1.83;;;1.73;;
27802;SDS011;15182;48.174;11.562;2022-09-09T09:10:10;1.70;;;1.65;;
27802;SDS011;15182;48.174;11.562;2022-09-09T09:12:49;1.67;;;1.58;;
27802;SDS011;15182;48.174;11.562;2022-09-09T09:15:23;1.80;;;1.70;;
27802;SDS011;15182;48.174;11.562;2022-09-09T09:18:04;1.58;;;1.50;;
27802;SDS011;15182;48.174;11.562;2022-09-09T09:20:41;1.70;;;1.70;;
27802;SDS011;15182;48.174;11.562;2022-09-09T09:23:22;1.63;;;1.63;;
27802;SDS011;15182;48.174;11.562;2022-09-09T09:25:58;2.13;;;1.83;;
27802;SDS011;15182;48.174;11.562;2022-09-09T09:28:35;2.03;;;2.03;;
27802;SDS011;15182;48.174;11.562;2022-09-09T09:31:15;2.33;;;2.22;;
27802;SDS011;15182;48.174;11.562;2022-09-09T09:33:50;2.20;;;2.20;;
27802;SDS011;15182;48.174;11.562;2022-09-09T09:36:32;1.90;;;1.80;;
27802;SDS011;15182;48.174;11.562;2022-09-09T09:39:22;1.63;;;1.63;;
27802;SDS011;15182;48.174;11.562;2022-09-09T09:41:57;1.60;;;1.60;;
27802;SDS011;15182;48.174;11.562;2022-09-09T09:44:41;2.08;;;1.63;;
27802;SDS011;15182;48.174;11.562;2022-09-09T09:47:19;1.50;;;1.50;;
27802;SDS011;15182;48.174;11.562;2022-09-09T09:49:59;1.40;;;1.40;;
27802;SDS011;15182;48.174;11.562;2022-09-09T09:52:35;1.30;;;1.30;;
27802;SDS011;15182;48.174;11.562;2022-09-09T09:55:12;1.45;;;1.45;;
27802;SDS011;15182;48.174;11.562;2022-09-09T09:57:46;1.40;;;1.30;;
27802;SDS011;15182;48.174;11.562;2022-09-09T10:00:19;1.30;;;1.30;;
27802;SDS011;15182;48.174;11.562;2022-09-09T10:03:02;1.42;;;1.30;;
27802;SDS011;15182;48.174;11.562;2022-09-09T10:05:49;1.40;;;1.30;;
27802;SDS011;15182;48.174;11.562;2022-09-09T10:08:22;1.20;;;1.20;;
27802;SDS011;15182;48.174;11.562;2022-09-09T10:10:57;1.20;;;1.20;;
27802;SDS011;15182;48.174;11.562;2022-09-09T10:13:38;1.30;;;1.30;;
27802;SDS011;15182;48.174;11.562;2022-09-09T10:16:25;1.45;;;1.13;;
27802;SDS011;15182;48.174;11.562;2022-09-09T10:19:09;1.67;;;1.20;;
27802;SDS011;15182;48.174;11.562;2022-09-09T10:21:53;1.38;;;1.20;;
27802;SDS011;15182;48.174;11.562;2022-09-09T10:24:36;1.30;;;1.30;;
27802;SDS011;15182;48.174;11.562;2022-09-09T10:27:44;1.33;;;1.33;;
27802;SDS011;15182;48.174;11.562;2022-09-09T10:30:24;1.67;;;1.58;;
27802;SDS011;15182;48.174;11.562;2022-09-09T10:33:05;1.58;;;1.58;;
27802;SDS011;15182;48.174;11.562;2022-09-09T10:35:43;1.52;;;1.48;;
27802;SDS011;15182;48.174;11.562;2022-09-09T10:38:26;1.67;;;1.55;;
27802;SDS011;15182;48.174;11.562;2022-09-09T10:41:15;1.42;;;1.42;;
27802;SDS011;15182;48.174;11.562;2022-09-09T10:43:59;1.65;;;1.52;;
27802;SDS011;15182;48.174;11.562;2022-09-09T10:47:10;1.85;;;1.50;;
27802;SDS011;15182;48.174;11.562;2022-09-09T10:50:03;1.35;;;1.35;;
27802;SDS011;15182;48.174;11.562;2022-09-09T10:52:51;1.30;;;1.30;;
27802;SDS011;15182;48.174;11.562;2022-09-09T10:55:27;1.27;;;1.27;;
27802;SDS011;15182;48.174;11.562;2022-09-09T10:58:04;1.25;;;1.25;;
27802;SDS011;15182;48.174;11.562;2022-09-09T11:00:41;1.23;;;1.23;;
27802;SDS011;15182;48.174;11.562;2022-09-09T11:03:19;1.33;;;1.20;;
27802;SDS011;15182;48.174;11.562;2022-09-09T11:05:56;1.42;;;1.42;;
27802;SDS011;15182;48.174;11.562;2022-09-09T11:08:31;1.10;;;1.10;;
27802;SDS011;15182;48.174;11.562;2022-09-09T11:11:08;0.98;;;0.98;;
27802;SDS011;15182;48.174;11.562;2022-09-09T11:13:44;1.33;;;1.33;;
27802;SDS011;15182;48.174;11.562;2022-09-09T11:16:25;1.08;;;1.05;;
27802;SDS011;15182;48.174;11.562;2022-09-09T11:19:02;1.42;;;1.30;;
27802;SDS011;15182;48.174;11.562;2022-09-09T11:21:46;1.08;;;1.08;;
27802;SDS011;15182;48.174;11.562;2022-09-09T11:24:21;1.00;;;1.00;;
27802;SDS011;15182;48.174;11.562;2022-09-09T11:26:57;1.20;;;1.20;;
27802;SDS011;15182;48.174;11.562;2022-09-09T11:32:55;1.00;;;1.00;;
27802;SDS011;15182;48.174;11.562;2022-09-09T11:35:52;3.08;;;1.10;;
27802;SDS011;15182;48.174;11.562;2022-09-09T11:38:38;1.00;;;1.00;;
27802;SDS011;15182;48.174;11.562;2022-09-09T11:41:16;1.00;;;1.00;;
27802;SDS011;15182;48.174;11.562;2022-09-09T11:43:50;1.35;;;1.25;;
27802;SDS011;15182;48.174;11.562;2022-09-09T11:46:23;1.08;;;1.05;;
27802;SDS011;15182;48.174;11.562;2022-09-09T11:49:05;1.13;;;1.13;;
27802;SDS011;15182;48.174;11.562;2022-09-09T11:51:53;1.10;;;1.10;;
27802;SDS011;15182;48.174;11.562;2022-09-09T11:54:28;0.90;;;0.90;;
27802;SDS011;15182;48.174;11.562;2022-09-09T11:57:15;1.05;;;0.95;;
27802;SDS011;15182;48.174;11.562;2022-09-09T11:59:54;0.98;;;0.98;;
27802;SDS011;15182;48.174;11.562;2022-09-09T12:02:26;3.33;;;1.20;;
27802;SDS011;15182;48.174;11.562;2022-09-09T12:05:00;1.00;;;1.00;;
27802;SDS011;15182;48.174;11.562;2022-09-09T12:07:36;2.00;;;0.90;;
27802;SDS011;15182;48.174;11.562;2022-09-09T12:10:20;0.93;;;0.93;;
27802;SDS011;15182;48.174;11.562;2022-09-09T12:13:07;2.28;;;1.40;;
27802;SDS011;15182;48.174;11.562;2022-09-09T12:15:46;1.00;;;1.00;;
27802;SDS011;15182;48.174;11.562;2022-09-09T12:18:21;0.90;;;0.90;;
27802;SDS011;15182;48.174;11.562;2022-09-09T12:21:03;1.08;;;0.90;;
27802;SDS011;15182;48.174;11.562;2022-09-09T12:23:43;0.85;;;0.85;;
27802;SDS011;15182;48.174;11.562;2022-09-09T12:26:23;1.00;;;1.00;;
27802;SDS011;15182;48.174;11.562;2022-09-09T12:29:03;0.90;;;0.90;;
27802;SDS011;15182;48.174;11.562;2022-09-09T12:31:41;0.82;;;0.82;;
27802;SDS011;15182;48.174;11.562;2022-09-09T12:34:20;0.93;;;0.93;;
27802;SDS011;15182;48.174;11.562;2022-09-09T12:37:02;1.00;;;1.00;;
27802;SDS011;15182;48.174;11.562;2022-09-09T12:39:44;1.00;;;0.90;;
27802;SDS011;15182;48.174;11.562;2022-09-09T12:42:21;1.38;;;1.05;;
27802;SDS011;15182;48.174;11.562;2022-09-09T12:44:55;1.10;;;1.10;;
27802;SDS011;15182;48.174;11.562;2022-09-09T12:47:33;0.90;;;0.90;;
27802;SDS011;15182;48.174;11.562;2022-09-09T12:50:15;1.10;;;1.10;;
27802;SDS011;15182;48.174;11.562;2022-09-09T12:52:51;1.20;;;1.20;;
27802;SDS011;15182;48.174;11.562;2022-09-09T12:55:27;1.38;;;1.20;;
27802;SDS011;15182;48.174;11.562;2022-09-09T12:58:03;1.23;;;1.23;;
27802;SDS011;15182;48.174;11.562;2022-09-09T13:00:48;1.00;;;1.00;;
27802;SDS011;15182;48.174;11.562;2022-09-09T13:03:22;1.02;;;1.02;;
27802;SDS011;15182;48.174;11.562;2022-09-09T13:05:57;1.75;;;1.08;;
27802;SDS011;15182;48.174;11.562;2022-09-09T13:08:40;1.00;;;1.00;;
27802;SDS011;15182;48.174;11.562;2022-09-09T13:11:13;1.15;;;1.15;;
27802;SDS011;15182;48.174;11.562;2022-09-09T13:13:53;1.45;;;1.35;;
27802;SDS011;15182;48.174;11.562;2022-09-09T13:16:29;1.73;;;1.00;;
27802;SDS011;15182;48.174;11.562;2022-09-09T13:19:06;1.02;;;1.02;;
27802;SDS011;15182;48.174;11.562;2022-09-09T13:21:43;1.27;;;1.10;;
27802;SDS011;15182;48.174;11.562;2022-09-09T13:24:24;0.93;;;0.93;;
27802;SDS011;15182;48.174;11.562;2022-09-09T13:26:59;1.10;;;1.10;;
27802;SDS011;15182;48.174;11.562;2022-09-09T13:29:31;0.90;;;0.90;;
27802;SDS011;15182;48.174;11.562;2022-09-09T13:32:05;1.30;;;1.20;;
27802;SDS011;15182;48.174;11.562;2022-09-09T13:34:50;0.90;;;0.90;;
27802;SDS011;15182;48.174;11.562;2022-09-09T13:37:23;1.20;;;1.20;;
27802;SDS011;15182;48.174;11.562;2022-09-09T13:40:02;1.02;;;1.02;;
27802;SDS011;15182;48.174;11.562;2022-09-09T13:42:42;1.98;;;1.05;;
27802;SDS011;15182;48.174;11.562;2022-09-09T13:45:20;1.10;;;1.10;;
27802;SDS011;15182;48.174;11.562;2022-09-09T13:47:53;1.00;;;1.00;;
27802;SDS011;15182;48.174;11.562;2022-09-09T13:50:25;0.93;;;0.93;;
27802;SDS011;15182;48.174;11.562;2022-09-09T13:52:58;0.90;;;0.90;;
27802;SDS011;15182;48.174;11.562;2022-09-09T13:55:30;0.85;;;0.85;;
27802;SDS011;15182;48.174;11.562;2022-09-09T13:58:00;1.00;;;0.90;;
27802;SDS011;15182;48.174;11.562;2022-09-09T14:00:34;1.23;;;1.10;;
27802;SDS011;15182;48.174;11.562;2022-09-09T14:03:05;1.27;;;1.27;;
27802;SDS011;15182;48.174;11.562;2022-09-09T14:05:36;1.10;;;1.10;;
27802;SDS011;15182;48.174;11.562;2022-09-09T14:08:10;0.82;;;0.82;;
27802;SDS011;15182;48.174;11.562;2022-09-09T14:10:48;0.90;;;0.90;;
27802;SDS011;15182;48.174;11.562;2022-09-09T14:13:23;1.08;;;1.08;;
27802;SDS011;15182;48.174;11.562;2022-09-09T14:15:55;0.90;;;0.90;;
27802;SDS011;15182;48.174;11.562;2022-09-09T14:18:26;1.20;;;1.20;;
27802;SDS011;15182;48.174;11.562;2022-09-09T14:21:03;1.00;;;1.00;;
27802;SDS011;15182;48.174;11.562;2022-09-09T14:23:35;1.00;;;1.00;;
27802;SDS011;15182;48.174;11.562;2022-09-09T14:26:06;0.98;;;0.98;;
27802;SDS011;15182;48.174;11.562;2022-09-09T14:28:39;1.05;;;1.05;;
27802;SDS011;15182;48.174;11.562;2022-09-09T14:31:12;0.90;;;0.90;;
27802;SDS011;15182;48.174;11.562;2022-09-09T14:33:44;0.93;;;0.93;;
27802;SDS011;15182;48.174;11.562;2022-09-09T14:36:18;1.00;;;1.00;;
27802;SDS011;15182;48.174;11.562;2022-09-09T14:38:50;3.92;;;0.85;;
27802;SDS011;15182;48.174;11.562;2022-09-09T14:41:23;1.00;;;1.00;;
27802;SDS011;15182;48.174;11.562;2022-09-09T14:43:55;0.98;;;0.93;;
27802;SDS011;15182;48.174;11.562;2022-09-09T14:46:28;2.15;;;1.20;;
27802;SDS011;15182;48.174;11.562;2022-09-09T14:49:01;1.15;;;1.02;;
27802;SDS011;15182;48.174;11.562;2022-09-09T14:51:32;0.93;;;0.93;;
27802;SDS011;15182;48.174;11.562;2022-09-09T14:54:04;8.60;;;1.00;;
27802;SDS011;15182;48.174;11.562;2022-09-09T14:56:36;1.00;;;1.00;;
27802;SDS011;15182;48.174;11.562;2022-09-09T14:59:07;1.38;;;1.27;;
27802;SDS011;15182;48.174;11.562;2022-09-09T15:01:40;1.08;;;1.00;;
27802;SDS011;15182;48.174;11.562;2022-09-09T15:04:11;0.80;;;0.80;;
27802;SDS011;15182;48.174;11.562;2022-09-09T15:06:45;1.10;;;1.10;;
27802;SDS011;15182;48.174;11.562;2022-09-09T15:09:19;4.13;;;1.10;;
27802;SDS011;15182;48.174;11.562;2022-09-09T15:11:50;1.00;;;1.00;;
27802;SDS011;15182;48.174;11.562;2022-09-09T15:14:21;3.20;;;1.20;;
27802;SDS011;15182;48.174;11.562;2022-09-09T15:16:54;1.00;;;1.00;;
27802;SDS011;15182;48.174;11.562;2022-09-09T15:19:25;1.30;;;1.15;;
27802;SDS011;15182;48.174;11.562;2022-09-09T15:21:58;1.08;;;1.00;;
27802;SDS011;15182;48.174;11.562;2022-09-09T15:24:31;1.00;;;1.00;;
27802;SDS011;15182;48.174;11.562;2022-09-09T15:27:02;0.90;;;0.90;;
27802;SDS011;15182;48.174;11.562;2022-09-09T15:29:33;1.15;;;1.15;;
27802;SDS011;15182;48.174;11.562;2022-09-09T15:32:06;1.08;;;1.08;;